sensor_id;sensor_type;location;lat;lon;timestamp;P1;durP1;ratioP1;P2;durP2;ratioP2
77798;SDS011;66989;50.426;15.352;2023-04-23T00:01:26;8.63;;;6.95;;
77798;SDS011;66989;50.426;15.352;2023-04-23T00:03:54;8.05;;;6.45;;
77798;SDS011;66989;50.426;15.352;2023-04-23T00:06:21;8.35;;;6.53;;
77798;SDS011;66989;50.426;15.352;2023-04-23T00:08:47;11.75;;;7.18;;
77798;SDS011;66989;50.426;15.352;2023-04-23T00:11:15;7.85;;;5.60;;
77798;SDS011;66989;50.426;15.352;2023-04-23T00:13:40;10.30;;;7.45;;
77798;SDS011;66989;50.426;15.352;2023-04-23T00:16:06;8.90;;;6.78;;
77798;SDS011;66989;50.426;15.352;2023-04-23T00:18:32;11.30;;;7.57;;
77798;SDS011;66989;50.426;15.352;2023-04-23T00:20:57;8.63;;;6.40;;
77798;SDS011;66989;50.426;15.352;2023-04-23T00:23:23;10.55;;;7.55;;
77798;SDS011;66989;50.426;15.352;2023-04-23T00:25:48;7.88;;;7.07;;
77798;SDS011;66989;50.426;15.352;2023-04-23T00:28:13;8.52;;;6.40;;
77798;SDS011;66989;50.426;15.352;2023-04-23T00:30:40;7.90;;;5.22;;
77798;SDS011;66989;50.426;15.352;2023-04-23T00:33:05;8.68;;;6.05;;
77798;SDS011;66989;50.426;15.352;2023-04-23T00:35:31;10.55;;;6.07;;
77798;SDS011;66989;50.426;15.352;2023-04-23T00:37:56;12.80;;;7.23;;
77798;SDS011;66989;50.426;15.352;2023-04-23T00:40:22;10.48;;;6.80;;
77798;SDS011;66989;50.426;15.352;2023-04-23T00:42:47;10.13;;;8.55;;
77798;SDS011;66989;50.426;15.352;2023-04-23T00:45:16;8.02;;;6.10;;
77798;SDS011;66989;50.426;15.352;2023-04-23T00:47:42;10.25;;;6.57;;
77798;SDS011;66989;50.426;15.352;2023-04-23T00:50:07;10.55;;;7.45;;
77798;SDS011;66989;50.426;15.352;2023-04-23T00:52:33;10.10;;;7.45;;
77798;SDS011;66989;50.426;15.352;2023-04-23T00:55:00;9.05;;;5.78;;
77798;SDS011;66989;50.426;15.352;2023-04-23T00:57:25;8.98;;;6.55;;
77798;SDS011;66989;50.426;15.352;2023-04-23T00:59:51;10.15;;;6.78;;
77798;SDS011;66989;50.426;15.352;2023-04-23T01:02:19;7.82;;;6.50;;
77798;SDS011;66989;50.426;15.352;2023-04-23T01:04:45;8.88;;;7.05;;
77798;SDS011;66989;50.426;15.352;2023-04-23T01:07:15;9.90;;;6.72;;
77798;SDS011;66989;50.426;15.352;2023-04-23T01:09:40;7.70;;;4.60;;
77798;SDS011;66989;50.426;15.352;2023-04-23T01:12:06;7.75;;;6.32;;
77798;SDS011;66989;50.426;15.352;2023-04-23T01:14:35;10.82;;;7.47;;
77798;SDS011;66989;50.426;15.352;2023-04-23T01:17:01;9.23;;;6.68;;
77798;SDS011;66989;50.426;15.352;2023-04-23T01:19:26;10.18;;;6.28;;
77798;SDS011;66989;50.426;15.352;2023-04-23T01:21:52;8.35;;;5.20;;
77798;SDS011;66989;50.426;15.352;2023-04-23T01:24:19;8.98;;;6.05;;
77798;SDS011;66989;50.426;15.352;2023-04-23T01:26:44;9.73;;;6.30;;
77798;SDS011;66989;50.426;15.352;2023-04-23T01:29:10;11.13;;;6.50;;
77798;SDS011;66989;50.426;15.352;2023-04-23T01:31:36;8.77;;;6.88;;
77798;SDS011;66989;50.426;15.352;2023-04-23T01:34:02;8.57;;;5.85;;
77798;SDS011;66989;50.426;15.352;2023-04-23T01:36:27;8.55;;;5.88;;
77798;SDS011;66989;50.426;15.352;2023-04-23T01:38:54;10.80;;;6.47;;
77798;SDS011;66989;50.426;15.352;2023-04-23T01:41:19;7.93;;;6.30;;
77798;SDS011;66989;50.426;15.352;2023-04-23T01:43:45;11.63;;;7.20;;
77798;SDS011;66989;50.426;15.352;2023-04-23T01:46:10;9.93;;;6.22;;
77798;SDS011;66989;50.426;15.352;2023-04-23T01:48:36;10.13;;;7.00;;
77798;SDS011;66989;50.426;15.352;2023-04-23T01:51:02;7.47;;;6.25;;
77798;SDS011;66989;50.426;15.352;2023-04-23T01:53:28;9.93;;;7.32;;
77798;SDS011;66989;50.426;15.352;2023-04-23T01:55:54;9.85;;;6.78;;
77798;SDS011;66989;50.426;15.352;2023-04-23T01:58:20;9.55;;;7.30;;
77798;SDS011;66989;50.426;15.352;2023-04-23T02:00:47;12.07;;;7.63;;
77798;SDS011;66989;50.426;15.352;2023-04-23T02:03:13;10.68;;;7.13;;
77798;SDS011;66989;50.426;15.352;2023-04-23T02:05:38;8.30;;;6.15;;
77798;SDS011;66989;50.426;15.352;2023-04-23T02:08:05;5.47;;;4.70;;
77798;SDS011;66989;50.426;15.352;2023-04-23T02:10:31;6.93;;;5.85;;
77798;SDS011;66989;50.426;15.352;2023-04-23T02:12:57;8.05;;;6.53;;
77798;SDS011;66989;50.426;15.352;2023-04-23T02:15:23;8.68;;;6.18;;
77798;SDS011;66989;50.426;15.352;2023-04-23T02:17:49;7.35;;;6.43;;
77798;SDS011;66989;50.426;15.352;2023-04-23T02:20:16;9.55;;;6.50;;
77798;SDS011;66989;50.426;15.352;2023-04-23T02:22:42;8.35;;;6.05;;
77798;SDS011;66989;50.426;15.352;2023-04-23T02:25:08;9.57;;;6.63;;
77798;SDS011;66989;50.426;15.352;2023-04-23T02:27:34;7.32;;;5.85;;
77798;SDS011;66989;50.426;15.352;2023-04-23T02:30:00;8.15;;;6.20;;
77798;SDS011;66989;50.426;15.352;2023-04-23T02:32:25;10.23;;;6.30;;
77798;SDS011;66989;50.426;15.352;2023-04-23T02:34:52;7.43;;;5.97;;
77798;SDS011;66989;50.426;15.352;2023-04-23T02:37:17;8.60;;;7.05;;
77798;SDS011;66989;50.426;15.352;2023-04-23T02:39:43;8.43;;;5.45;;
77798;SDS011;66989;50.426;15.352;2023-04-23T02:42:08;7.07;;;5.87;;
77798;SDS011;66989;50.426;15.352;2023-04-23T02:44:33;6.23;;;4.97;;
77798;SDS011;66989;50.426;15.352;2023-04-23T02:46:59;8.98;;;5.82;;
77798;SDS011;66989;50.426;15.352;2023-04-23T02:49:25;8.15;;;5.82;;
77798;SDS011;66989;50.426;15.352;2023-04-23T02:51:50;9.30;;;6.22;;
77798;SDS011;66989;50.426;15.352;2023-04-23T02:54:16;8.52;;;7.00;;
77798;SDS011;66989;50.426;15.352;2023-04-23T02:56:41;7.95;;;5.40;;
77798;SDS011;66989;50.426;15.352;2023-04-23T02:59:07;9.50;;;6.70;;
77798;SDS011;66989;50.426;15.352;2023-04-23T03:01:33;5.85;;;5.10;;
77798;SDS011;66989;50.426;15.352;2023-04-23T03:03:58;9.30;;;5.57;;
77798;SDS011;66989;50.426;15.352;2023-04-23T03:06:25;8.63;;;6.13;;
77798;SDS011;66989;50.426;15.352;2023-04-23T03:08:50;9.57;;;6.35;;
77798;SDS011;66989;50.426;15.352;2023-04-23T03:11:15;9.65;;;6.55;;
77798;SDS011;66989;50.426;15.352;2023-04-23T03:13:41;8.73;;;5.13;;
77798;SDS011;66989;50.426;15.352;2023-04-23T03:16:06;10.52;;;5.43;;
77798;SDS011;66989;50.426;15.352;2023-04-23T03:18:32;10.90;;;5.82;;
77798;SDS011;66989;50.426;15.352;2023-04-23T03:20:57;8.32;;;6.03;;
77798;SDS011;66989;50.426;15.352;2023-04-23T03:23:23;10.23;;;7.07;;
77798;SDS011;66989;50.426;15.352;2023-04-23T03:25:48;12.23;;;6.55;;
77798;SDS011;66989;50.426;15.352;2023-04-23T03:28:13;11.67;;;5.57;;
77798;SDS011;66989;50.426;15.352;2023-04-23T03:30:39;8.52;;;6.93;;
77798;SDS011;66989;50.426;15.352;2023-04-23T03:33:04;8.75;;;6.18;;
77798;SDS011;66989;50.426;15.352;2023-04-23T03:35:30;10.38;;;6.88;;
77798;SDS011;66989;50.426;15.352;2023-04-23T03:37:55;9.48;;;6.00;;
77798;SDS011;66989;50.426;15.352;2023-04-23T03:40:21;10.02;;;6.63;;
77798;SDS011;66989;50.426;15.352;2023-04-23T03:42:46;7.47;;;6.13;;
77798;SDS011;66989;50.426;15.352;2023-04-23T03:45:13;10.05;;;6.88;;
77798;SDS011;66989;50.426;15.352;2023-04-23T03:47:39;8.18;;;6.13;;
77798;SDS011;66989;50.426;15.352;2023-04-23T03:50:05;9.85;;;6.57;;
77798;SDS011;66989;50.426;15.352;2023-04-23T03:52:31;10.45;;;6.80;;
77798;SDS011;66989;50.426;15.352;2023-04-23T03:54:57;10.63;;;7.35;;
77798;SDS011;66989;50.426;15.352;2023-04-23T03:57:22;9.10;;;6.78;;
77798;SDS011;66989;50.426;15.352;2023-04-23T03:59:48;8.07;;;6.13;;
77798;SDS011;66989;50.426;15.352;2023-04-23T04:02:13;10.17;;;7.10;;
77798;SDS011;66989;50.426;15.352;2023-04-23T04:04:38;8.43;;;5.80;;
77798;SDS011;66989;50.426;15.352;2023-04-23T04:07:04;9.75;;;7.50;;
77798;SDS011;66989;50.426;15.352;2023-04-23T04:09:31;7.95;;;6.88;;
77798;SDS011;66989;50.426;15.352;2023-04-23T04:11:56;11.70;;;7.65;;
77798;SDS011;66989;50.426;15.352;2023-04-23T04:14:22;8.70;;;6.57;;
77798;SDS011;66989;50.426;15.352;2023-04-23T04:16:47;6.03;;;4.78;;
77798;SDS011;66989;50.426;15.352;2023-04-23T04:19:13;6.38;;;4.57;;
77798;SDS011;66989;50.426;15.352;2023-04-23T04:21:38;9.38;;;5.72;;
77798;SDS011;66989;50.426;15.352;2023-04-23T04:24:05;11.27;;;7.45;;
77798;SDS011;66989;50.426;15.352;2023-04-23T04:26:31;6.45;;;4.97;;
77798;SDS011;66989;50.426;15.352;2023-04-23T04:28:58;8.88;;;7.22;;
77798;SDS011;66989;50.426;15.352;2023-04-23T04:31:25;10.00;;;6.88;;
77798;SDS011;66989;50.426;15.352;2023-04-23T04:33:52;11.10;;;7.05;;
77798;SDS011;66989;50.426;15.352;2023-04-23T04:36:20;7.53;;;6.03;;
77798;SDS011;66989;50.426;15.352;2023-04-23T04:38:47;12.00;;;7.40;;
77798;SDS011;66989;50.426;15.352;2023-04-23T04:41:13;8.00;;;6.45;;
77798;SDS011;66989;50.426;15.352;2023-04-23T04:43:39;9.90;;;7.38;;
77798;SDS011;66989;50.426;15.352;2023-04-23T04:46:05;18.67;;;13.60;;
77798;SDS011;66989;50.426;15.352;2023-04-23T04:48:30;27.03;;;20.30;;
77798;SDS011;66989;50.426;15.352;2023-04-23T04:50:56;14.63;;;11.07;;
77798;SDS011;66989;50.426;15.352;2023-04-23T04:53:22;8.80;;;6.70;;
77798;SDS011;66989;50.426;15.352;2023-04-23T04:55:47;9.95;;;7.63;;
77798;SDS011;66989;50.426;15.352;2023-04-23T04:58:13;7.07;;;5.78;;
77798;SDS011;66989;50.426;15.352;2023-04-23T05:00:38;8.35;;;5.95;;
77798;SDS011;66989;50.426;15.352;2023-04-23T05:03:04;11.98;;;7.22;;
77798;SDS011;66989;50.426;15.352;2023-04-23T05:05:31;7.45;;;6.55;;
77798;SDS011;66989;50.426;15.352;2023-04-23T05:07:56;7.55;;;6.53;;
77798;SDS011;66989;50.426;15.352;2023-04-23T05:10:26;7.65;;;6.05;;
77798;SDS011;66989;50.426;15.352;2023-04-23T05:12:53;9.50;;;6.63;;
77798;SDS011;66989;50.426;15.352;2023-04-23T05:15:19;9.50;;;6.20;;
77798;SDS011;66989;50.426;15.352;2023-04-23T05:17:45;9.98;;;6.57;;
77798;SDS011;66989;50.426;15.352;2023-04-23T05:20:10;10.73;;;6.07;;
77798;SDS011;66989;50.426;15.352;2023-04-23T05:22:39;7.28;;;5.78;;
77798;SDS011;66989;50.426;15.352;2023-04-23T05:25:06;13.60;;;6.05;;
77798;SDS011;66989;50.426;15.352;2023-04-23T05:29:59;9.38;;;5.90;;
77798;SDS011;66989;50.426;15.352;2023-04-23T05:32:26;8.18;;;6.45;;
77798;SDS011;66989;50.426;15.352;2023-04-23T05:34:52;6.57;;;5.30;;
77798;SDS011;66989;50.426;15.352;2023-04-23T05:37:17;10.27;;;6.07;;
77798;SDS011;66989;50.426;15.352;2023-04-23T05:39:42;8.07;;;5.35;;
77798;SDS011;66989;50.426;15.352;2023-04-23T05:42:08;8.60;;;6.25;;
77798;SDS011;66989;50.426;15.352;2023-04-23T05:44:33;10.95;;;6.07;;
77798;SDS011;66989;50.426;15.352;2023-04-23T05:46:59;8.18;;;6.30;;
77798;SDS011;66989;50.426;15.352;2023-04-23T05:49:24;7.00;;;5.90;;
77798;SDS011;66989;50.426;15.352;2023-04-23T05:51:51;7.13;;;5.00;;
77798;SDS011;66989;50.426;15.352;2023-04-23T05:54:16;8.55;;;5.65;;
77798;SDS011;66989;50.426;15.352;2023-04-23T05:56:46;8.48;;;6.82;;
77798;SDS011;66989;50.426;15.352;2023-04-23T05:59:11;11.75;;;5.82;;
77798;SDS011;66989;50.426;15.352;2023-04-23T06:01:36;9.25;;;5.97;;
77798;SDS011;66989;50.426;15.352;2023-04-23T06:04:02;7.82;;;5.70;;
77798;SDS011;66989;50.426;15.352;2023-04-23T06:06:28;7.05;;;6.05;;
77798;SDS011;66989;50.426;15.352;2023-04-23T06:08:53;10.45;;;5.70;;
77798;SDS011;66989;50.426;15.352;2023-04-23T06:11:19;8.48;;;6.25;;
77798;SDS011;66989;50.426;15.352;2023-04-23T06:16:10;6.40;;;5.63;;
77798;SDS011;66989;50.426;15.352;2023-04-23T06:18:36;7.72;;;5.85;;
77798;SDS011;66989;50.426;15.352;2023-04-23T06:21:02;9.45;;;5.53;;
77798;SDS011;66989;50.426;15.352;2023-04-23T06:23:31;7.70;;;5.57;;
77798;SDS011;66989;50.426;15.352;2023-04-23T06:25:59;8.70;;;6.13;;
77798;SDS011;66989;50.426;15.352;2023-04-23T06:28:28;9.50;;;6.40;;
77798;SDS011;66989;50.426;15.352;2023-04-23T06:30:53;7.75;;;6.60;;
77798;SDS011;66989;50.426;15.352;2023-04-23T06:33:19;10.35;;;6.72;;
77798;SDS011;66989;50.426;15.352;2023-04-23T06:35:44;6.85;;;5.07;;
77798;SDS011;66989;50.426;15.352;2023-04-23T06:38:10;8.60;;;4.75;;
77798;SDS011;66989;50.426;15.352;2023-04-23T06:40:36;8.73;;;6.15;;
77798;SDS011;66989;50.426;15.352;2023-04-23T06:43:01;8.20;;;5.90;;
77798;SDS011;66989;50.426;15.352;2023-04-23T06:45:29;7.60;;;4.63;;
77798;SDS011;66989;50.426;15.352;2023-04-23T06:47:56;5.85;;;4.05;;
77798;SDS011;66989;50.426;15.352;2023-04-23T06:50:21;8.52;;;6.45;;
77798;SDS011;66989;50.426;15.352;2023-04-23T06:52:47;8.13;;;6.13;;
77798;SDS011;66989;50.426;15.352;2023-04-23T06:55:12;13.68;;;6.25;;
77798;SDS011;66989;50.426;15.352;2023-04-23T06:57:45;8.20;;;6.93;;
77798;SDS011;66989;50.426;15.352;2023-04-23T07:00:11;7.47;;;6.60;;
77798;SDS011;66989;50.426;15.352;2023-04-23T07:02:37;7.82;;;5.53;;
77798;SDS011;66989;50.426;15.352;2023-04-23T07:05:03;8.80;;;5.47;;
77798;SDS011;66989;50.426;15.352;2023-04-23T07:07:28;6.82;;;5.68;;
77798;SDS011;66989;50.426;15.352;2023-04-23T07:09:54;8.50;;;7.18;;
77798;SDS011;66989;50.426;15.352;2023-04-23T07:12:19;9.63;;;5.45;;
77798;SDS011;66989;50.426;15.352;2023-04-23T07:14:45;6.63;;;5.45;;
77798;SDS011;66989;50.426;15.352;2023-04-23T07:17:10;9.02;;;6.55;;
77798;SDS011;66989;50.426;15.352;2023-04-23T07:19:36;6.85;;;5.35;;
77798;SDS011;66989;50.426;15.352;2023-04-23T07:22:01;7.57;;;6.40;;
77798;SDS011;66989;50.426;15.352;2023-04-23T07:24:27;7.88;;;6.25;;
77798;SDS011;66989;50.426;15.352;2023-04-23T07:26:52;8.85;;;6.63;;
77798;SDS011;66989;50.426;15.352;2023-04-23T07:29:18;7.40;;;6.03;;
77798;SDS011;66989;50.426;15.352;2023-04-23T07:31:43;10.05;;;6.50;;
77798;SDS011;66989;50.426;15.352;2023-04-23T07:34:09;7.90;;;6.97;;
77798;SDS011;66989;50.426;15.352;2023-04-23T07:36:35;8.80;;;6.72;;
77798;SDS011;66989;50.426;15.352;2023-04-23T07:39:01;10.20;;;5.95;;
77798;SDS011;66989;50.426;15.352;2023-04-23T07:41:26;8.25;;;5.75;;
77798;SDS011;66989;50.426;15.352;2023-04-23T07:43:52;10.57;;;6.72;;
77798;SDS011;66989;50.426;15.352;2023-04-23T07:46:20;10.23;;;6.35;;
77798;SDS011;66989;50.426;15.352;2023-04-23T07:48:45;7.47;;;6.57;;
77798;SDS011;66989;50.426;15.352;2023-04-23T07:51:11;7.78;;;6.32;;
77798;SDS011;66989;50.426;15.352;2023-04-23T07:53:36;10.65;;;6.45;;
77798;SDS011;66989;50.426;15.352;2023-04-23T07:56:02;11.82;;;7.75;;
77798;SDS011;66989;50.426;15.352;2023-04-23T07:58:27;13.00;;;7.35;;
77798;SDS011;66989;50.426;15.352;2023-04-23T08:00:52;9.55;;;7.15;;
77798;SDS011;66989;50.426;15.352;2023-04-23T08:03:18;9.35;;;6.30;;
77798;SDS011;66989;50.426;15.352;2023-04-23T08:05:44;9.52;;;5.88;;
77798;SDS011;66989;50.426;15.352;2023-04-23T08:08:10;6.57;;;5.73;;
77798;SDS011;66989;50.426;15.352;2023-04-23T08:10:38;8.10;;;5.95;;
77798;SDS011;66989;50.426;15.352;2023-04-23T08:13:03;9.40;;;6.75;;
77798;SDS011;66989;50.426;15.352;2023-04-23T08:15:28;10.10;;;6.65;;
77798;SDS011;66989;50.426;15.352;2023-04-23T08:17:54;8.75;;;6.03;;
77798;SDS011;66989;50.426;15.352;2023-04-23T08:20:19;10.07;;;6.05;;
77798;SDS011;66989;50.426;15.352;2023-04-23T08:22:45;7.77;;;6.33;;
77798;SDS011;66989;50.426;15.352;2023-04-23T08:25:10;11.40;;;6.22;;
77798;SDS011;66989;50.426;15.352;2023-04-23T08:27:37;9.80;;;6.63;;
77798;SDS011;66989;50.426;15.352;2023-04-23T08:30:03;7.88;;;5.10;;
77798;SDS011;66989;50.426;15.352;2023-04-23T08:32:29;9.38;;;6.68;;
77798;SDS011;66989;50.426;15.352;2023-04-23T08:34:55;9.35;;;6.85;;
77798;SDS011;66989;50.426;15.352;2023-04-23T08:37:22;8.40;;;7.28;;
77798;SDS011;66989;50.426;15.352;2023-04-23T08:39:48;11.30;;;6.60;;
77798;SDS011;66989;50.426;15.352;2023-04-23T08:42:23;15.75;;;6.38;;
77798;SDS011;66989;50.426;15.352;2023-04-23T08:45:00;8.23;;;6.13;;
77798;SDS011;66989;50.426;15.352;2023-04-23T08:47:27;10.07;;;6.82;;
77798;SDS011;66989;50.426;15.352;2023-04-23T08:52:24;9.57;;;7.55;;
77798;SDS011;66989;50.426;15.352;2023-04-23T08:54:53;9.48;;;7.55;;
77798;SDS011;66989;50.426;15.352;2023-04-23T08:57:23;8.70;;;7.18;;
77798;SDS011;66989;50.426;15.352;2023-04-23T08:59:50;9.88;;;7.47;;
77798;SDS011;66989;50.426;15.352;2023-04-23T09:02:16;10.82;;;8.18;;
77798;SDS011;66989;50.426;15.352;2023-04-23T09:04:43;13.38;;;7.10;;
77798;SDS011;66989;50.426;15.352;2023-04-23T09:07:11;9.55;;;7.45;;
77798;SDS011;66989;50.426;15.352;2023-04-23T09:09:37;11.10;;;6.95;;
77798;SDS011;66989;50.426;15.352;2023-04-23T09:12:04;11.88;;;7.60;;
77798;SDS011;66989;50.426;15.352;2023-04-23T09:14:31;10.35;;;6.05;;
77798;SDS011;66989;50.426;15.352;2023-04-23T09:16:57;7.82;;;6.57;;
77798;SDS011;66989;50.426;15.352;2023-04-23T09:19:24;8.88;;;5.20;;
77798;SDS011;66989;50.426;15.352;2023-04-23T09:21:54;10.13;;;6.55;;
77798;SDS011;66989;50.426;15.352;2023-04-23T09:24:21;7.57;;;5.97;;
77798;SDS011;66989;50.426;15.352;2023-04-23T09:26:48;7.40;;;5.70;;
77798;SDS011;66989;50.426;15.352;2023-04-23T09:29:15;10.23;;;6.22;;
77798;SDS011;66989;50.426;15.352;2023-04-23T09:31:45;8.02;;;7.22;;
77798;SDS011;66989;50.426;15.352;2023-04-23T09:34:14;10.48;;;6.72;;
77798;SDS011;66989;50.426;15.352;2023-04-23T09:36:47;11.32;;;7.28;;
77798;SDS011;66989;50.426;15.352;2023-04-23T09:39:15;11.45;;;6.35;;
77798;SDS011;66989;50.426;15.352;2023-04-23T09:41:42;13.23;;;7.90;;
77798;SDS011;66989;50.426;15.352;2023-04-23T09:44:10;8.25;;;7.03;;
77798;SDS011;66989;50.426;15.352;2023-04-23T09:46:38;11.00;;;7.20;;
77798;SDS011;66989;50.426;15.352;2023-04-23T09:49:06;9.80;;;7.45;;
77798;SDS011;66989;50.426;15.352;2023-04-23T09:51:39;11.48;;;8.13;;
77798;SDS011;66989;50.426;15.352;2023-04-23T09:54:15;11.13;;;6.05;;
77798;SDS011;66989;50.426;15.352;2023-04-23T09:56:43;10.45;;;6.70;;
77798;SDS011;66989;50.426;15.352;2023-04-23T09:59:20;8.30;;;7.07;;
77798;SDS011;66989;50.426;15.352;2023-04-23T10:01:46;11.85;;;6.57;;
77798;SDS011;66989;50.426;15.352;2023-04-23T10:04:13;8.80;;;6.65;;
77798;SDS011;66989;50.426;15.352;2023-04-23T10:06:42;11.30;;;6.32;;
77798;SDS011;66989;50.426;15.352;2023-04-23T10:09:08;6.65;;;5.05;;
77798;SDS011;66989;50.426;15.352;2023-04-23T10:11:33;10.43;;;7.00;;
77798;SDS011;66989;50.426;15.352;2023-04-23T10:13:59;9.15;;;7.50;;
77798;SDS011;66989;50.426;15.352;2023-04-23T10:16:25;6.72;;;6.03;;
77798;SDS011;66989;50.426;15.352;2023-04-23T10:18:50;13.60;;;5.90;;
77798;SDS011;66989;50.426;15.352;2023-04-23T10:21:17;10.35;;;6.25;;
77798;SDS011;66989;50.426;15.352;2023-04-23T10:23:45;12.90;;;7.72;;
77798;SDS011;66989;50.426;15.352;2023-04-23T10:26:17;6.10;;;4.90;;
77798;SDS011;66989;50.426;15.352;2023-04-23T10:28:45;5.82;;;4.65;;
77798;SDS011;66989;50.426;15.352;2023-04-23T10:31:13;7.35;;;5.20;;
77798;SDS011;66989;50.426;15.352;2023-04-23T10:33:42;4.90;;;4.00;;
77798;SDS011;66989;50.426;15.352;2023-04-23T10:36:08;6.97;;;4.75;;
77798;SDS011;66989;50.426;15.352;2023-04-23T10:38:33;5.65;;;3.67;;
77798;SDS011;66989;50.426;15.352;2023-04-23T10:41:00;5.85;;;4.75;;
77798;SDS011;66989;50.426;15.352;2023-04-23T10:43:27;5.88;;;4.68;;
77798;SDS011;66989;50.426;15.352;2023-04-23T10:45:52;5.50;;;3.85;;
77798;SDS011;66989;50.426;15.352;2023-04-23T10:48:19;5.03;;;3.30;;
77798;SDS011;66989;50.426;15.352;2023-04-23T10:50:44;8.60;;;4.05;;
77798;SDS011;66989;50.426;15.352;2023-04-23T10:53:18;5.43;;;4.07;;
77798;SDS011;66989;50.426;15.352;2023-04-23T10:55:45;9.43;;;5.95;;
77798;SDS011;66989;50.426;15.352;2023-04-23T10:58:11;9.50;;;5.68;;
77798;SDS011;66989;50.426;15.352;2023-04-23T11:03:05;4.75;;;4.25;;
77798;SDS011;66989;50.426;15.352;2023-04-23T11:06:05;7.47;;;5.05;;
77798;SDS011;66989;50.426;15.352;2023-04-23T11:08:31;7.32;;;5.15;;
77798;SDS011;66989;50.426;15.352;2023-04-23T11:10:59;5.22;;;4.40;;
77798;SDS011;66989;50.426;15.352;2023-04-23T11:13:26;7.80;;;5.18;;
77798;SDS011;66989;50.426;15.352;2023-04-23T11:21:20;6.65;;;4.45;;
77798;SDS011;66989;50.426;15.352;2023-04-23T11:23:46;5.22;;;4.53;;
77798;SDS011;66989;50.426;15.352;2023-04-23T11:26:13;5.03;;;4.07;;
77798;SDS011;66989;50.426;15.352;2023-04-23T11:28:42;6.22;;;4.53;;
77798;SDS011;66989;50.426;15.352;2023-04-23T11:31:11;5.85;;;4.78;;
77798;SDS011;66989;50.426;15.352;2023-04-23T11:33:37;5.10;;;4.30;;
77798;SDS011;66989;50.426;15.352;2023-04-23T11:36:03;6.28;;;4.60;;
77798;SDS011;66989;50.426;15.352;2023-04-23T11:38:31;6.95;;;4.57;;
77798;SDS011;66989;50.426;15.352;2023-04-23T11:41:00;4.45;;;3.17;;
77798;SDS011;66989;50.426;15.352;2023-04-23T11:43:26;3.33;;;2.10;;
77798;SDS011;66989;50.426;15.352;2023-04-23T11:45:54;4.47;;;2.90;;
77798;SDS011;66989;50.426;15.352;2023-04-23T11:48:19;4.53;;;3.95;;
77798;SDS011;66989;50.426;15.352;2023-04-23T11:50:45;4.85;;;3.58;;
77798;SDS011;66989;50.426;15.352;2023-04-23T11:53:10;5.32;;;3.92;;
77798;SDS011;66989;50.426;15.352;2023-04-23T11:55:36;5.03;;;3.90;;
77798;SDS011;66989;50.426;15.352;2023-04-23T11:58:02;4.40;;;2.60;;
77798;SDS011;66989;50.426;15.352;2023-04-23T12:00:28;4.28;;;3.58;;
77798;SDS011;66989;50.426;15.352;2023-04-23T12:02:54;5.05;;;4.03;;
77798;SDS011;66989;50.426;15.352;2023-04-23T12:05:22;5.28;;;3.20;;
77798;SDS011;66989;50.426;15.352;2023-04-23T12:07:52;4.88;;;2.92;;
77798;SDS011;66989;50.426;15.352;2023-04-23T12:10:18;6.38;;;3.53;;
77798;SDS011;66989;50.426;15.352;2023-04-23T12:12:49;4.95;;;2.33;;
77798;SDS011;66989;50.426;15.352;2023-04-23T12:15:15;4.78;;;3.10;;
77798;SDS011;66989;50.426;15.352;2023-04-23T12:17:41;4.32;;;2.90;;
77798;SDS011;66989;50.426;15.352;2023-04-23T12:20:08;4.40;;;2.75;;
77798;SDS011;66989;50.426;15.352;2023-04-23T12:22:37;3.05;;;2.22;;
77798;SDS011;66989;50.426;15.352;2023-04-23T12:25:04;3.63;;;3.33;;
77798;SDS011;66989;50.426;15.352;2023-04-23T12:27:31;4.00;;;3.25;;
77798;SDS011;66989;50.426;15.352;2023-04-23T12:29:58;3.22;;;2.25;;
77798;SDS011;66989;50.426;15.352;2023-04-23T12:32:24;3.20;;;2.28;;
77798;SDS011;66989;50.426;15.352;2023-04-23T12:34:51;2.95;;;2.65;;
77798;SDS011;66989;50.426;15.352;2023-04-23T12:37:18;3.50;;;2.70;;
77798;SDS011;66989;50.426;15.352;2023-04-23T12:39:48;3.92;;;2.65;;
77798;SDS011;66989;50.426;15.352;2023-04-23T12:42:13;5.00;;;2.70;;
77798;SDS011;66989;50.426;15.352;2023-04-23T12:44:39;3.25;;;2.05;;
77798;SDS011;66989;50.426;15.352;2023-04-23T12:47:07;3.08;;;2.47;;
77798;SDS011;66989;50.426;15.352;2023-04-23T12:49:35;4.65;;;1.88;;
77798;SDS011;66989;50.426;15.352;2023-04-23T12:52:10;3.22;;;2.33;;
77798;SDS011;66989;50.426;15.352;2023-04-23T12:54:37;5.00;;;2.83;;
77798;SDS011;66989;50.426;15.352;2023-04-23T12:57:12;4.15;;;3.17;;
77798;SDS011;66989;50.426;15.352;2023-04-23T12:59:48;3.28;;;1.85;;
77798;SDS011;66989;50.426;15.352;2023-04-23T13:02:18;4.05;;;2.55;;
77798;SDS011;66989;50.426;15.352;2023-04-23T13:04:47;3.90;;;3.13;;
77798;SDS011;66989;50.426;15.352;2023-04-23T13:07:16;3.25;;;2.95;;
77798;SDS011;66989;50.426;15.352;2023-04-23T13:09:41;2.80;;;2.35;;
77798;SDS011;66989;50.426;15.352;2023-04-23T13:12:09;1.77;;;1.52;;
77798;SDS011;66989;50.426;15.352;2023-04-23T13:14:37;2.78;;;1.90;;
77798;SDS011;66989;50.426;15.352;2023-04-23T13:17:11;1.60;;;1.50;;
77798;SDS011;66989;50.426;15.352;2023-04-23T13:19:37;3.00;;;2.38;;
77798;SDS011;66989;50.426;15.352;2023-04-23T13:22:03;1.52;;;1.35;;
77798;SDS011;66989;50.426;15.352;2023-04-23T13:24:32;7.32;;;3.28;;
77798;SDS011;66989;50.426;15.352;2023-04-23T13:26:58;8.27;;;4.32;;
77798;SDS011;66989;50.426;15.352;2023-04-23T13:29:24;2.90;;;1.50;;
77798;SDS011;66989;50.426;15.352;2023-04-23T13:31:57;2.92;;;0.95;;
77798;SDS011;66989;50.426;15.352;2023-04-23T13:34:22;2.67;;;2.03;;
77798;SDS011;66989;50.426;15.352;2023-04-23T13:36:47;3.42;;;2.42;;
77798;SDS011;66989;50.426;15.352;2023-04-23T13:39:16;6.68;;;3.85;;
77798;SDS011;66989;50.426;15.352;2023-04-23T13:41:45;6.75;;;4.18;;
77798;SDS011;66989;50.426;15.352;2023-04-23T13:44:10;5.80;;;3.30;;
77798;SDS011;66989;50.426;15.352;2023-04-23T13:46:37;8.48;;;4.70;;
77798;SDS011;66989;50.426;15.352;2023-04-23T13:49:06;7.15;;;4.90;;
77798;SDS011;66989;50.426;15.352;2023-04-23T13:51:32;2.90;;;1.23;;
77798;SDS011;66989;50.426;15.352;2023-04-23T13:54:00;2.75;;;1.95;;
77798;SDS011;66989;50.426;15.352;2023-04-23T13:56:26;2.33;;;2.13;;
77798;SDS011;66989;50.426;15.352;2023-04-23T13:58:54;2.25;;;1.48;;
77798;SDS011;66989;50.426;15.352;2023-04-23T14:01:29;4.03;;;2.13;;
77798;SDS011;66989;50.426;15.352;2023-04-23T14:03:54;1.75;;;1.40;;
77798;SDS011;66989;50.426;15.352;2023-04-23T14:08:54;3.13;;;1.42;;
77798;SDS011;66989;50.426;15.352;2023-04-23T14:11:22;2.58;;;1.25;;
77798;SDS011;66989;50.426;15.352;2023-04-23T14:13:48;1.73;;;1.23;;
77798;SDS011;66989;50.426;15.352;2023-04-23T14:16:13;2.05;;;1.70;;
77798;SDS011;66989;50.426;15.352;2023-04-23T14:18:39;2.25;;;1.90;;
77798;SDS011;66989;50.426;15.352;2023-04-23T14:21:08;3.25;;;2.47;;
77798;SDS011;66989;50.426;15.352;2023-04-23T14:26:26;2.78;;;2.28;;
77798;SDS011;66989;50.426;15.352;2023-04-23T14:29:02;5.25;;;3.65;;
77798;SDS011;66989;50.426;15.352;2023-04-23T14:31:35;2.85;;;2.03;;
77798;SDS011;66989;50.426;15.352;2023-04-23T14:34:02;2.45;;;2.13;;
77798;SDS011;66989;50.426;15.352;2023-04-23T14:36:28;1.90;;;1.65;;
77798;SDS011;66989;50.426;15.352;2023-04-23T14:38:54;2.95;;;1.95;;
77798;SDS011;66989;50.426;15.352;2023-04-23T14:41:19;2.13;;;1.92;;
77798;SDS011;66989;50.426;15.352;2023-04-23T14:43:45;3.15;;;1.90;;
77798;SDS011;66989;50.426;15.352;2023-04-23T14:46:10;1.00;;;0.90;;
77798;SDS011;66989;50.426;15.352;2023-04-23T14:48:36;2.22;;;1.70;;